createdAt,value
2023-09-23T00:00:58.857Z,100893.84
2023-09-23T00:03:27.373Z,100894.72
2023-09-23T00:05:54.612Z,100899.09
2023-09-23T00:08:21.707Z,100887.66
2023-09-23T00:10:52.379Z,100887.66
2023-09-23T00:13:22.203Z,100899.94
2023-09-23T00:15:51.190Z,100893.78
2023-09-23T00:18:18.940Z,100885.91
2023-09-23T00:20:46.704Z,100895.53
2023-09-23T00:23:14.583Z,100897.28
2023-09-23T00:25:41.788Z,100886.75
2023-09-23T00:28:12.204Z,100885.88
2023-09-23T00:30:39.594Z,100898.13
2023-09-23T00:33:09.044Z,100905.13
2023-09-23T00:35:37.909Z,100898.13
2023-09-23T00:38:08.680Z,100896.34
2023-09-23T00:40:39.535Z,100892.88
2023-09-23T00:43:14.566Z,100898.06
2023-09-23T00:45:49.385Z,100906.81
2023-09-23T00:48:23.147Z,100905.03
2023-09-23T00:50:53.697Z,100890.13
2023-09-23T00:53:23.645Z,100900.66
2023-09-23T00:55:56.628Z,100905.91
2023-09-23T00:58:26.372Z,100887.50
2023-09-23T01:00:56.112Z,100904.16
2023-09-23T01:03:25.346Z,100890.13
2023-09-23T01:06:05.687Z,100904.16
2023-09-23T01:08:34.648Z,100890.94
2023-09-23T01:11:01.903Z,100895.38
2023-09-23T01:13:31.498Z,100896.25
2023-09-23T01:16:00.932Z,100897.13
2023-09-23T01:18:30.061Z,100894.47
2023-09-23T01:21:01.825Z,100899.72
2023-09-23T01:23:29.197Z,100886.53
2023-09-23T01:25:56.454Z,100889.19
2023-09-23T01:28:24.041Z,100898.81
2023-09-23T01:30:51.273Z,100904.94
2023-09-23T01:33:18.623Z,100889.16
2023-09-23T01:35:47.114Z,100901.38
2023-09-23T01:38:16.886Z,100904.00
2023-09-23T01:40:45.000Z,100906.63
2023-09-23T01:43:13.058Z,100903.09
2023-09-23T01:45:41.248Z,100904.78
2023-09-23T01:48:09.516Z,100889.94
2023-09-23T01:50:36.733Z,100896.06
2023-09-23T01:53:04.543Z,100904.81
2023-09-23T01:55:32.264Z,100902.16
2023-09-23T01:57:59.734Z,100904.78
2023-09-23T02:00:30.844Z,100909.13
2023-09-23T02:02:59.040Z,100906.50
2023-09-23T02:05:29.005Z,100901.25
2023-09-23T02:07:56.744Z,100912.56
2023-09-23T02:10:27.525Z,100904.63
2023-09-23T02:12:56.630Z,100905.50
2023-09-23T02:15:23.834Z,100896.66
2023-09-23T02:17:51.524Z,100898.44
2023-09-23T02:20:20.699Z,100905.44
2023-09-23T02:22:55.181Z,100913.25
2023-09-23T02:25:26.202Z,100899.19
2023-09-23T02:27:56.359Z,100890.41
2023-09-23T02:30:24.578Z,100907.94
2023-09-23T02:32:51.939Z,100902.69
2023-09-23T02:35:19.176Z,100866.56
2023-09-23T02:37:47.840Z,100906.19
2023-09-23T02:40:16.014Z,100917.53
2023-09-23T02:42:45.854Z,100908.75
2023-09-23T02:45:15.402Z,100926.22
2023-09-23T02:47:45.556Z,100914.84
2023-09-23T02:50:15.044Z,100912.16
2023-09-23T02:52:46.227Z,100922.66
2023-09-23T02:55:16.871Z,100917.41
2023-09-23T02:57:51.948Z,100891.88
2023-09-23T03:00:31.369Z,100911.22
2023-09-23T03:03:00.177Z,100915.53
2023-09-23T03:05:31.307Z,100914.66
2023-09-23T03:08:01.422Z,100919.88
2023-09-23T03:10:40.798Z,100919.03
2023-09-23T03:13:09.159Z,100922.50
2023-09-23T03:15:52.445Z,100921.63
2023-09-23T03:18:29.766Z,100918.94
2023-09-23T03:21:04.749Z,100920.69
2023-09-23T03:23:31.871Z,100915.44
2023-09-23T03:26:00.567Z,100904.91
2023-09-23T03:28:27.833Z,100922.44
2023-09-23T03:31:01.331Z,100929.44
2023-09-23T03:33:28.618Z,100928.53
2023-09-23T03:35:56.618Z,100924.97
2023-09-23T03:38:24.128Z,100931.97
2023-09-23T03:40:53.588Z,100882.75
2023-09-23T03:43:22.608Z,100932.84
2023-09-23T03:45:50.021Z,100935.44
2023-09-23T03:48:17.203Z,100934.63
2023-09-23T03:50:44.625Z,100925.84
2023-09-23T03:53:13.099Z,100917.03
2023-09-23T03:55:40.532Z,100939.00
2023-09-23T03:58:07.902Z,100943.34
2023-09-23T04:00:35.990Z,100941.63
2023-09-23T04:03:03.283Z,100952.09
2023-09-23T04:05:32.889Z,100931.06
2023-09-23T04:08:00.153Z,100944.19
2023-09-23T04:10:28.610Z,100939.88
2023-09-23T04:12:56.746Z,100947.81
2023-09-23T04:15:25.772Z,100951.31
2023-09-23T04:17:53.544Z,100947.88
2023-09-23T04:20:20.905Z,100904.75
2023-09-23T04:22:48.154Z,100946.16
2023-09-23T04:25:15.516Z,100945.28
2023-09-23T04:27:42.691Z,100949.69
2023-09-23T04:30:10.964Z,100956.72
2023-09-23T04:32:40.525Z,100944.47
2023-09-23T04:35:09.064Z,100941.88
2023-09-23T04:37:39.916Z,100952.47
2023-09-23T04:40:12.147Z,100956.84
2023-09-23T04:42:44.181Z,100953.34
2023-09-23T04:45:13.025Z,100957.81
2023-09-23T04:47:41.475Z,100904.25
2023-09-23T04:50:13.780Z,100972.75
2023-09-23T04:52:42.534Z,100973.69
2023-09-23T04:55:10.313Z,100978.06
2023-09-23T04:57:37.674Z,100968.47
2023-09-23T05:00:10.739Z,100958.84
2023-09-23T05:02:40.943Z,100968.53
2023-09-23T05:05:11.240Z,100971.22
2023-09-23T05:07:39.266Z,100970.44
2023-09-23T05:10:08.024Z,100978.34
2023-09-23T05:12:35.487Z,100971.38
2023-09-23T05:15:04.405Z,100969.69
2023-09-23T05:17:32.705Z,100975.84
2023-09-23T05:20:00.105Z,100976.78
2023-09-23T05:22:27.306Z,100970.69
2023-09-23T05:24:59.028Z,100958.44
2023-09-23T05:27:26.623Z,100972.53
2023-09-23T05:29:54.747Z,100966.41
2023-09-23T05:32:22.075Z,100982.25
2023-09-23T05:34:52.932Z,100976.16
2023-09-23T05:37:20.543Z,100959.53
2023-09-23T05:39:47.683Z,100976.25
2023-09-23T05:42:24.414Z,100974.56
2023-09-23T05:44:51.534Z,100975.50
2023-09-23T05:47:18.660Z,100973.81
2023-09-23T05:49:47.737Z,100973.84
2023-09-23T05:52:16.213Z,100971.28
2023-09-23T05:54:43.550Z,100979.16
2023-09-23T05:57:10.955Z,100980.09
2023-09-23T05:59:38.074Z,100979.22
2023-09-23T06:02:09.956Z,100981.00
2023-09-23T06:04:37.280Z,100973.97
2023-09-23T06:07:05.978Z,100972.25
2023-09-23T06:09:33.312Z,100983.66
2023-09-23T06:12:00.486Z,100976.63
2023-09-23T06:14:27.830Z,100977.50
2023-09-23T06:16:55.220Z,100977.44
2023-09-23T06:19:22.731Z,100974.78
2023-09-23T06:21:50.123Z,100984.31
2023-09-23T06:24:17.332Z,100982.41
2023-09-23T06:26:44.490Z,100980.38
2023-09-23T06:29:11.805Z,100967.84
2023-09-23T06:31:38.933Z,100977.25
2023-09-23T06:34:07.561Z,100980.63
2023-09-23T06:36:35.111Z,100979.63
2023-09-23T06:39:02.252Z,100974.22
2023-09-23T06:41:29.423Z,100977.59
2023-09-23T06:43:58.317Z,100973.06
2023-09-23T06:46:25.577Z,100984.28
2023-09-23T06:48:52.704Z,100934.13
2023-09-23T06:51:19.800Z,100975.97
2023-09-23T06:53:48.571Z,100983.81
2023-09-23T06:56:16.287Z,100966.16
2023-09-23T06:58:43.400Z,100975.59
2023-09-23T07:01:10.509Z,100984.09
2023-09-23T07:03:37.690Z,100972.19
2023-09-23T07:06:04.946Z,100976.91
2023-09-23T07:08:32.154Z,100947.50
2023-09-23T07:10:59.355Z,100973.88
2023-09-23T07:13:26.579Z,100977.53
2023-09-23T07:15:53.728Z,100974.88
2023-09-23T07:18:20.893Z,100977.66
2023-09-23T07:20:48.041Z,100972.81
2023-09-23T07:23:15.261Z,100971.06
2023-09-23T07:25:43.679Z,100975.47
2023-09-23T07:28:11.359Z,100981.00
2023-09-23T07:30:39.514Z,100973.56
2023-09-23T07:33:07.077Z,100959.13
2023-09-23T07:35:34.801Z,100966.47
2023-09-23T07:38:04.108Z,100974.00
2023-09-23T07:40:32.187Z,100965.72
2023-09-23T07:42:59.455Z,100938.25
2023-09-23T07:45:26.966Z,100967.25
2023-09-23T07:47:54.202Z,100966.59
2023-09-23T07:50:22.147Z,100966.31
2023-09-23T07:52:49.659Z,100967.97
2023-09-23T07:55:17.063Z,100979.63
2023-09-23T07:57:46.168Z,100955.03
2023-09-23T08:00:13.650Z,100961.28
2023-09-23T08:02:40.857Z,100973.38
2023-09-23T08:05:08.467Z,100978.53
2023-09-23T08:07:35.745Z,100974.00
2023-09-23T08:10:05.171Z,100970.41
2023-09-23T08:12:35.533Z,100963.28
2023-09-23T08:15:03.130Z,100940.56
2023-09-23T08:17:32.944Z,100965.63
2023-09-23T08:20:00.791Z,100965.34
2023-09-23T08:22:27.919Z,100964.38
2023-09-23T08:24:55.075Z,100971.28
2023-09-23T08:27:22.357Z,100966.72
2023-09-23T08:29:51.043Z,100963.94
2023-09-23T08:32:18.287Z,100958.38
2023-09-23T08:34:45.757Z,100961.72
2023-09-23T08:37:12.988Z,100964.19
2023-09-23T08:39:40.339Z,100943.03
2023-09-23T08:42:08.870Z,100953.25
2023-09-23T08:44:36.546Z,100947.00
2023-09-23T08:47:03.946Z,100955.63
2023-09-23T08:49:31.948Z,100929.06
2023-09-23T08:52:00.937Z,100936.78
2023-09-23T08:54:30.306Z,100934.19
2023-09-23T08:56:57.659Z,100943.66
2023-09-23T08:59:28.118Z,100934.50
2023-09-23T09:01:56.805Z,100939.69
2023-09-23T09:04:25.561Z,100931.59
2023-09-23T09:06:54.725Z,100933.25
2023-09-23T09:09:22.086Z,100928.94
2023-09-23T09:11:51.053Z,100922.75
2023-09-23T09:14:18.964Z,100942.97
2023-09-23T09:16:46.823Z,100939.38
2023-09-23T09:19:14.204Z,100931.47
2023-09-23T09:21:42.661Z,100931.41
2023-09-23T09:24:12.585Z,100926.31
2023-09-23T09:26:39.687Z,100924.47
2023-09-23T09:29:07.007Z,100922.75
2023-09-23T09:31:36.209Z,100924.41
2023-09-23T09:34:12.714Z,100925.34
2023-09-23T09:36:40.444Z,100921.09
2023-09-23T09:39:09.930Z,100934.00
2023-09-23T09:41:48.245Z,100929.47
2023-09-23T09:44:22.496Z,100930.53
2023-09-23T09:46:51.714Z,100926.16
2023-09-23T09:49:19.089Z,100929.00
2023-09-23T09:51:50.365Z,100915.56
2023-09-23T09:54:26.781Z,100919.75
2023-09-23T09:56:57.162Z,100926.94
2023-09-23T09:59:27.881Z,100927.81
2023-09-23T10:01:59.216Z,100912.84
2023-09-23T10:04:35.114Z,100938.41
2023-09-23T10:07:07.342Z,100924.16
2023-09-23T10:09:37.651Z,100926.78
2023-09-23T10:12:05.625Z,100934.72
2023-09-23T10:14:33.029Z,100925.75
2023-09-23T10:17:03.131Z,100924.00
2023-09-23T10:19:34.520Z,100921.16
2023-09-23T10:22:21.903Z,100928.59
2023-09-23T10:25:02.808Z,100921.13
2023-09-23T10:27:33.739Z,100917.72
2023-09-23T10:30:03.542Z,100926.72
2023-09-23T10:32:32.398Z,100905.75
2023-09-23T10:35:00.400Z,100903.25
2023-09-23T10:37:30.660Z,100918.22
2023-09-23T10:40:18.799Z,100914.81
2023-09-23T10:42:50.547Z,100891.94
2023-09-23T10:45:23.742Z,100910.81
2023-09-23T10:47:51.785Z,100901.16
2023-09-23T10:50:18.939Z,100910.16
2023-09-23T10:52:46.569Z,100909.22
2023-09-23T10:55:14.060Z,100904.63
2023-09-23T10:57:41.375Z,100887.66
2023-09-23T11:00:21.752Z,100904.22
2023-09-23T11:02:56.251Z,100900.75
2023-09-23T11:05:24.462Z,100887.72
2023-09-23T11:07:55.722Z,100894.84
2023-09-23T11:10:24.315Z,100895.72
2023-09-23T11:12:51.480Z,100898.38
2023-09-23T11:15:19.033Z,100893.72
2023-09-23T11:17:46.458Z,100891.44
2023-09-23T11:20:14.750Z,100889.59
2023-09-23T11:22:45.327Z,100877.25
2023-09-23T11:25:13.539Z,100896.34
2023-09-23T11:27:41.443Z,100882.50
2023-09-23T11:30:09.344Z,100862.56
2023-09-23T11:32:36.650Z,100883.22
2023-09-23T11:35:04.182Z,100879.47
2023-09-23T11:37:31.516Z,100883.13
2023-09-23T11:39:58.812Z,100875.28
2023-09-23T11:42:26.025Z,100879.16
2023-09-23T11:44:54.008Z,100852.97
2023-09-23T11:47:22.682Z,100858.31
2023-09-23T11:49:50.282Z,100852.19
2023-09-23T11:52:17.844Z,100864.72
2023-09-23T11:54:45.558Z,100865.94
2023-09-23T11:57:13.862Z,100847.69
2023-09-23T11:59:41.553Z,100865.19
2023-09-23T12:02:10.106Z,100877.53
2023-09-23T12:04:37.785Z,100845.97
2023-09-23T12:07:06.152Z,100861.53
2023-09-23T12:09:36.946Z,100849.38
2023-09-23T12:12:04.499Z,100846.63
2023-09-23T12:14:31.764Z,100863.53
2023-09-23T12:16:59.093Z,100866.22
2023-09-23T12:19:26.176Z,100860.16
2023-09-23T12:21:53.290Z,100859.38
2023-09-23T12:24:20.329Z,100863.09
2023-09-23T12:26:47.527Z,100862.28
2023-09-23T12:29:14.729Z,100816.16
2023-09-23T12:31:41.849Z,100853.72
2023-09-23T12:34:08.967Z,100863.50
2023-09-23T12:36:36.078Z,100857.38
2023-09-23T12:39:03.646Z,100853.13
2023-09-23T12:41:30.770Z,100867.34
2023-09-23T12:43:58.480Z,100852.34
2023-09-23T12:46:25.708Z,100857.78
2023-09-23T12:48:52.816Z,100857.97
2023-09-23T12:51:20.934Z,100847.41
2023-09-23T12:53:49.371Z,100851.06
2023-09-23T12:56:18.718Z,100853.94
2023-09-23T12:58:46.406Z,100847.84
2023-09-23T13:01:14.212Z,100848.91
2023-09-23T13:03:41.879Z,100835.75
2023-09-23T13:06:09.189Z,100848.44
2023-09-23T13:08:36.371Z,100843.84
2023-09-23T13:11:03.752Z,100841.50
2023-09-23T13:13:31.113Z,100835.56
2023-09-23T13:15:58.298Z,100844.47
2023-09-23T13:18:25.593Z,100824.44
2023-09-23T13:20:52.837Z,100837.41
2023-09-23T13:23:19.931Z,100846.28
2023-09-23T13:25:47.563Z,100844.63
2023-09-23T13:28:15.202Z,100836.72
2023-09-23T13:30:42.340Z,100831.44
2023-09-23T13:33:10.400Z,100829.72
2023-09-23T13:35:38.020Z,100829.03
2023-09-23T13:38:08.139Z,100834.34
2023-09-23T13:40:37.064Z,100837.97
2023-09-23T13:43:04.424Z,100835.34
2023-09-23T13:45:31.637Z,100835.50
2023-09-23T13:47:59.161Z,100838.41
2023-09-23T13:50:27.348Z,100824.44
2023-09-23T13:52:54.585Z,100824.53
2023-09-23T13:55:21.680Z,100823.69
2023-09-23T13:57:49.000Z,100822.00
2023-09-23T14:00:16.269Z,100821.09
2023-09-23T14:02:43.682Z,100835.34
2023-09-23T14:05:12.308Z,100823.16
2023-09-23T14:07:39.890Z,100816.28
2023-09-23T14:10:19.279Z,100822.34
2023-09-23T14:12:49.348Z,100815.50
2023-09-23T14:15:17.245Z,100822.59
2023-09-23T14:17:44.611Z,100821.72
2023-09-23T14:20:14.029Z,100811.22
2023-09-23T14:22:46.707Z,100814.84
2023-09-23T14:25:15.499Z,100812.31
2023-09-23T14:27:44.248Z,100818.69
2023-09-23T14:30:12.267Z,100818.75
2023-09-23T14:32:39.966Z,100818.00
2023-09-23T14:35:07.759Z,100813.72
2023-09-23T14:37:35.468Z,100812.91
2023-09-23T14:40:03.450Z,100820.00
2023-09-23T14:42:32.207Z,100794.84
2023-09-23T14:44:59.422Z,100820.16
2023-09-23T14:47:27.561Z,100824.66
2023-09-23T14:49:54.840Z,100813.28
2023-09-23T14:52:22.270Z,100814.28
2023-09-23T14:54:49.449Z,100802.09
2023-09-23T14:57:16.981Z,100819.75
2023-09-23T14:59:45.409Z,100807.69
2023-09-23T15:02:12.743Z,100817.47
2023-09-23T15:04:39.950Z,100778.53
2023-09-23T15:07:07.061Z,100816.97
2023-09-23T15:09:34.244Z,100819.91
2023-09-23T15:12:01.397Z,100825.41
2023-09-23T15:14:28.720Z,100817.63
2023-09-23T15:16:56.034Z,100821.47
2023-09-23T15:19:23.360Z,100817.22
2023-09-23T15:21:50.419Z,100821.78
2023-09-23T15:24:18.251Z,100794.94
2023-09-23T15:26:46.178Z,100816.88
2023-09-23T15:29:13.421Z,100810.00
2023-09-23T15:31:40.481Z,100818.06
2023-09-23T15:34:08.153Z,100800.63
2023-09-23T15:36:36.721Z,100808.69
2023-09-23T15:39:05.502Z,100814.03
2023-09-23T15:41:32.904Z,100799.22
2023-09-23T15:44:00.152Z,100811.66
2023-09-23T15:46:27.373Z,100815.34
2023-09-23T15:48:54.577Z,100812.84
2023-09-23T15:51:21.809Z,100773.75
2023-09-23T15:53:49.142Z,100779.06
2023-09-23T15:56:16.576Z,100812.31
2023-09-23T15:58:45.302Z,100813.34
2023-09-23T16:01:12.916Z,100804.75
2023-09-23T16:03:40.359Z,100824.19
2023-09-23T16:06:07.680Z,100815.50
2023-09-23T16:08:34.980Z,100820.91
2023-09-23T16:11:05.546Z,100819.34
2023-09-23T16:13:33.601Z,100826.50
2023-09-23T16:16:00.834Z,100811.63
2023-09-23T16:18:28.108Z,100792.56
2023-09-23T16:20:55.364Z,100806.59
2023-09-23T16:23:22.592Z,100804.88
2023-09-23T16:25:50.460Z,100817.19
2023-09-23T16:28:17.692Z,100818.06
2023-09-23T16:30:46.355Z,100808.44
2023-09-23T16:33:13.948Z,100809.41
2023-09-23T16:35:41.374Z,100788.47
2023-09-23T16:38:08.627Z,100810.44
2023-09-23T16:40:37.277Z,100805.28
2023-09-23T16:43:05.055Z,100813.25
2023-09-23T16:45:32.423Z,100819.44
2023-09-23T16:47:59.654Z,100816.00
2023-09-23T16:50:27.284Z,100803.78
2023-09-23T16:52:54.533Z,100816.09
2023-09-23T16:55:21.952Z,100810.78
2023-09-23T16:57:49.283Z,100811.69
2023-09-23T17:00:18.284Z,100771.63
2023-09-23T17:02:46.037Z,100808.41
2023-09-23T17:05:14.138Z,100794.44
2023-09-23T17:07:41.342Z,100811.94
2023-09-23T17:10:09.691Z,100816.38
2023-09-23T17:12:37.046Z,100805.91
2023-09-23T17:15:05.282Z,100816.41
2023-09-23T17:17:33.211Z,100810.28
2023-09-23T17:20:00.963Z,100798.09
2023-09-23T17:22:28.687Z,100798.09
2023-09-23T17:24:55.842Z,100790.25
2023-09-23T17:27:23.059Z,100800.75
2023-09-23T17:29:50.223Z,100811.28
2023-09-23T17:32:17.402Z,100811.28
2023-09-23T17:34:44.612Z,100786.00
2023-09-23T17:37:14.455Z,100818.44
2023-09-23T17:39:41.607Z,100818.47
2023-09-23T17:42:08.812Z,100809.69
2023-09-23T17:44:38.041Z,100811.50
2023-09-23T17:47:05.971Z,100801.84
2023-09-23T17:49:33.099Z,100804.47
2023-09-23T17:52:00.185Z,100792.28
2023-09-23T17:54:27.435Z,100784.41
2023-09-23T17:56:54.577Z,100795.75
2023-09-23T17:59:22.349Z,100796.69
2023-09-23T18:01:49.707Z,100785.31
2023-09-23T18:04:17.331Z,100798.47
2023-09-23T18:06:44.733Z,100795.88
2023-09-23T18:09:11.945Z,100798.50
2023-09-23T18:11:39.211Z,100794.13
2023-09-23T18:14:06.533Z,100797.63
2023-09-23T18:16:33.835Z,100798.53
2023-09-23T18:19:00.999Z,100792.34
2023-09-23T18:21:28.222Z,100783.69
2023-09-23T18:23:55.440Z,100795.09
2023-09-23T18:26:22.690Z,100783.66
2023-09-23T18:28:49.887Z,100788.91
2023-09-23T18:31:17.112Z,100792.41
2023-09-23T18:33:44.498Z,100788.03
2023-09-23T18:36:12.378Z,100791.59
2023-09-23T18:38:39.738Z,100794.25
2023-09-23T18:41:07.252Z,100789.88
2023-09-23T18:43:34.368Z,100796.00
2023-09-23T18:46:01.581Z,100796.03
2023-09-23T18:48:31.756Z,100800.47
2023-09-23T18:51:00.371Z,100783.84
2023-09-23T18:53:28.056Z,100787.41
2023-09-23T18:55:55.826Z,100809.28
2023-09-23T18:58:23.133Z,100796.13
2023-09-23T19:00:50.388Z,100761.19
2023-09-23T19:03:18.749Z,100804.06
2023-09-23T19:05:47.565Z,100809.34
2023-09-23T19:08:15.535Z,100817.28
2023-09-23T19:10:42.947Z,100805.03
2023-09-23T19:13:10.315Z,100807.69
2023-09-23T19:15:37.629Z,100813.81
2023-09-23T19:18:05.105Z,100808.59
2023-09-23T19:20:32.976Z,100779.75
2023-09-23T19:23:00.232Z,100805.09
2023-09-23T19:25:27.333Z,100799.84
2023-09-23T19:27:54.458Z,100807.75
2023-09-23T19:30:21.749Z,100809.50
2023-09-23T19:32:50.985Z,100798.13
2023-09-23T19:35:18.774Z,100807.84
2023-09-23T19:37:46.346Z,100790.34
2023-09-23T19:40:13.604Z,100792.97
2023-09-23T19:42:40.717Z,100786.00
2023-09-23T19:45:09.821Z,100798.25
2023-09-23T19:47:38.281Z,100756.25
2023-09-23T19:50:07.549Z,100801.75
2023-09-23T19:52:35.464Z,100783.34
2023-09-23T19:55:03.062Z,100798.25
2023-09-23T19:57:32.450Z,100800.91
2023-09-23T20:00:00.615Z,100796.53
2023-09-23T20:02:28.248Z,100798.28
2023-09-23T20:04:56.171Z,100793.03
2023-09-23T20:07:24.904Z,100800.91
2023-09-23T20:09:52.090Z,100795.69
2023-09-23T20:12:19.188Z,100786.94
2023-09-23T20:14:46.451Z,100793.06
2023-09-23T20:17:13.654Z,100760.69
2023-09-23T20:19:40.813Z,100781.69
2023-09-23T20:22:07.950Z,100788.66
2023-09-23T20:24:35.196Z,100786.94
2023-09-23T20:27:05.029Z,100795.72
2023-09-23T20:29:32.161Z,100788.72
2023-09-23T20:31:59.256Z,100787.84
2023-09-23T20:34:26.398Z,100788.69
2023-09-23T20:36:57.260Z,100786.94
2023-09-23T20:39:24.840Z,100779.91
2023-09-23T20:41:53.849Z,100770.22
2023-09-23T20:44:21.231Z,100783.31
2023-09-23T20:46:48.382Z,100787.66
2023-09-23T20:49:15.569Z,100776.19
2023-09-23T20:51:42.798Z,100777.00
2023-09-23T20:54:10.037Z,100781.38
2023-09-23T20:56:37.164Z,100777.84
2023-09-23T20:59:04.305Z,100781.28
2023-09-23T21:01:31.473Z,100728.81
2023-09-23T21:03:58.782Z,100772.47
2023-09-23T21:06:26.039Z,100737.47
2023-09-23T21:08:53.300Z,100772.44
2023-09-23T21:11:20.595Z,100768.94
2023-09-23T21:13:48.137Z,100775.94
2023-09-23T21:16:16.256Z,100763.69
2023-09-23T21:18:43.645Z,100777.72
2023-09-23T21:21:10.942Z,100768.09
2023-09-23T21:23:39.257Z,100768.13
2023-09-23T21:26:07.383Z,100771.59
2023-09-23T21:28:34.518Z,100734.03
2023-09-23T21:31:01.582Z,100779.50
2023-09-23T21:33:28.906Z,100772.47
2023-09-23T21:35:56.329Z,100774.25
2023-09-23T21:38:23.583Z,100779.50
2023-09-23T21:40:50.707Z,100756.75
2023-09-23T21:43:18.007Z,100763.72
2023-09-23T21:45:45.342Z,100782.97
2023-09-23T21:48:12.601Z,100780.38
2023-09-23T21:50:39.848Z,100780.38
2023-09-23T21:53:07.003Z,100776.84
2023-09-23T21:55:34.127Z,100757.59
2023-09-23T21:58:01.251Z,100671.94
2023-09-23T22:00:29.230Z,100772.53
2023-09-23T22:02:58.521Z,100762.03
2023-09-23T22:05:27.337Z,100764.59
2023-09-23T22:08:01.986Z,100767.16
2023-09-23T22:10:29.643Z,100750.63
2023-09-23T22:12:58.278Z,100762.84
2023-09-23T22:15:26.971Z,100774.25
2023-09-23T22:17:54.944Z,100762.81
2023-09-23T22:20:26.137Z,100761.06
2023-09-23T22:22:54.887Z,100773.34
2023-09-23T22:25:23.471Z,100766.28
2023-09-23T22:27:55.347Z,100747.97
2023-09-23T22:30:27.394Z,100768.09
2023-09-23T22:32:58.994Z,100764.59
2023-09-23T22:35:31.089Z,100776.00
2023-09-23T22:38:00.507Z,100774.25
2023-09-23T22:40:27.901Z,100774.28
2023-09-23T22:42:59.855Z,100770.75
2023-09-23T22:45:38.516Z,100770.75
2023-09-23T22:48:08.780Z,100771.69
2023-09-23T22:50:36.543Z,100773.41
2023-09-23T22:53:06.514Z,100769.88
2023-09-23T22:55:34.137Z,100771.66
2023-09-23T22:58:01.262Z,100754.16
2023-09-23T23:00:28.785Z,100740.22
2023-09-23T23:02:57.881Z,100722.72
2023-09-23T23:05:28.211Z,100783.06
2023-09-23T23:07:57.471Z,100779.53
2023-09-23T23:10:25.003Z,100760.31
2023-09-23T23:12:52.272Z,100780.47
2023-09-23T23:15:19.712Z,100783.09
2023-09-23T23:17:48.486Z,100777.84
2023-09-23T23:20:24.284Z,100776.97
2023-09-23T23:22:56.329Z,100751.59
2023-09-23T23:25:25.174Z,100765.59
2023-09-23T23:27:53.270Z,100767.34
2023-09-23T23:30:21.922Z,100768.28
2023-09-23T23:32:49.957Z,100760.41
2023-09-23T23:35:24.386Z,100766.63
2023-09-23T23:37:52.400Z,100767.53
2023-09-23T23:40:24.616Z,100761.38
2023-09-23T23:42:52.228Z,100743.91
2023-09-23T23:45:22.972Z,100752.69
2023-09-23T23:47:56.721Z,100757.06
2023-09-23T23:50:25.223Z,100758.84
2023-09-23T23:52:52.989Z,100765.00
2023-09-23T23:55:20.374Z,100763.28
2023-09-23T23:57:48.525Z,100765.97
